sensor_id;sensor_type;location;lat;lon;timestamp;temperature;humidity
4749;DHT22;2388;53.582;9.962;2023-05-29T00:01:51;14.20;99.90
4749;DHT22;2388;53.582;9.962;2023-05-29T00:04:17;14.20;99.90
4749;DHT22;2388;53.582;9.962;2023-05-29T00:06:43;14.20;99.90
4749;DHT22;2388;53.582;9.962;2023-05-29T00:09:08;14.10;99.90
4749;DHT22;2388;53.582;9.962;2023-05-29T00:11:34;14.10;99.90
4749;DHT22;2388;53.582;9.962;2023-05-29T00:14:00;14.00;99.90
4749;DHT22;2388;53.582;9.962;2023-05-29T00:16:25;14.00;99.90
4749;DHT22;2388;53.582;9.962;2023-05-29T00:18:51;14.10;99.90
4749;DHT22;2388;53.582;9.962;2023-05-29T00:21:17;14.00;99.90
4749;DHT22;2388;53.582;9.962;2023-05-29T00:23:43;14.00;99.90
4749;DHT22;2388;53.582;9.962;2023-05-29T00:26:08;13.90;99.90
4749;DHT22;2388;53.582;9.962;2023-05-29T00:28:35;13.90;99.90
4749;DHT22;2388;53.582;9.962;2023-05-29T00:31:01;13.80;99.90
4749;DHT22;2388;53.582;9.962;2023-05-29T00:33:27;13.60;99.90
4749;DHT22;2388;53.582;9.962;2023-05-29T00:35:53;13.70;99.90
4749;DHT22;2388;53.582;9.962;2023-05-29T00:38:18;13.70;99.90
4749;DHT22;2388;53.582;9.962;2023-05-29T00:40:44;13.60;99.90
4749;DHT22;2388;53.582;9.962;2023-05-29T00:43:09;13.50;99.90
4749;DHT22;2388;53.582;9.962;2023-05-29T00:45:35;13.50;99.90
4749;DHT22;2388;53.582;9.962;2023-05-29T00:48:05;13.40;99.90
4749;DHT22;2388;53.582;9.962;2023-05-29T00:50:30;13.40;99.90
4749;DHT22;2388;53.582;9.962;2023-05-29T00:52:58;13.30;99.90
4749;DHT22;2388;53.582;9.962;2023-05-29T00:55:24;13.10;99.90
4749;DHT22;2388;53.582;9.962;2023-05-29T00:57:49;13.00;99.90
4749;DHT22;2388;53.582;9.962;2023-05-29T01:00:15;13.10;99.90
4749;DHT22;2388;53.582;9.962;2023-05-29T01:02:42;13.10;99.90
4749;DHT22;2388;53.582;9.962;2023-05-29T01:05:11;13.20;99.90
4749;DHT22;2388;53.582;9.962;2023-05-29T01:07:38;13.10;99.90
4749;DHT22;2388;53.582;9.962;2023-05-29T01:10:07;13.00;99.90
4749;DHT22;2388;53.582;9.962;2023-05-29T01:12:49;12.90;99.90
4749;DHT22;2388;53.582;9.962;2023-05-29T01:18:39;12.70;99.90
4749;DHT22;2388;53.582;9.962;2023-05-29T01:26:48;12.60;99.90
4749;DHT22;2388;53.582;9.962;2023-05-29T01:29:18;12.50;99.90
4749;DHT22;2388;53.582;9.962;2023-05-29T01:31:45;12.40;99.90
4749;DHT22;2388;53.582;9.962;2023-05-29T01:34:11;12.50;99.90
4749;DHT22;2388;53.582;9.962;2023-05-29T01:36:36;12.40;99.90
4749;DHT22;2388;53.582;9.962;2023-05-29T01:39:02;12.40;99.90
4749;DHT22;2388;53.582;9.962;2023-05-29T01:41:29;12.40;99.90
4749;DHT22;2388;53.582;9.962;2023-05-29T01:43:56;12.40;99.90
4749;DHT22;2388;53.582;9.962;2023-05-29T01:46:23;12.40;99.90
4749;DHT22;2388;53.582;9.962;2023-05-29T01:48:51;12.40;99.90
4749;DHT22;2388;53.582;9.962;2023-05-29T01:51:18;12.40;99.90
4749;DHT22;2388;53.582;9.962;2023-05-29T01:53:43;12.30;99.90
4749;DHT22;2388;53.582;9.962;2023-05-29T01:56:09;12.30;99.90
4749;DHT22;2388;53.582;9.962;2023-05-29T01:58:35;12.30;99.90
4749;DHT22;2388;53.582;9.962;2023-05-29T02:01:02;12.30;99.90
4749;DHT22;2388;53.582;9.962;2023-05-29T02:03:29;12.20;99.90
4749;DHT22;2388;53.582;9.962;2023-05-29T02:05:59;12.20;99.90
4749;DHT22;2388;53.582;9.962;2023-05-29T02:08:25;12.20;99.90
4749;DHT22;2388;53.582;9.962;2023-05-29T02:10:50;12.20;99.90
4749;DHT22;2388;53.582;9.962;2023-05-29T02:13:17;12.20;99.90
4749;DHT22;2388;53.582;9.962;2023-05-29T02:15:43;12.20;99.90
4749;DHT22;2388;53.582;9.962;2023-05-29T02:18:10;12.10;99.90
4749;DHT22;2388;53.582;9.962;2023-05-29T02:20:37;12.10;99.90
4749;DHT22;2388;53.582;9.962;2023-05-29T02:23:03;12.10;99.90
4749;DHT22;2388;53.582;9.962;2023-05-29T02:25:28;12.00;99.90
4749;DHT22;2388;53.582;9.962;2023-05-29T02:27:54;12.00;99.90
4749;DHT22;2388;53.582;9.962;2023-05-29T02:30:19;12.00;99.90
4749;DHT22;2388;53.582;9.962;2023-05-29T02:32:45;11.90;99.90
4749;DHT22;2388;53.582;9.962;2023-05-29T02:35:12;11.90;99.90
4749;DHT22;2388;53.582;9.962;2023-05-29T02:37:40;12.00;99.90
4749;DHT22;2388;53.582;9.962;2023-05-29T02:40:06;11.90;99.90
4749;DHT22;2388;53.582;9.962;2023-05-29T02:42:34;11.80;99.90
4749;DHT22;2388;53.582;9.962;2023-05-29T02:45:00;11.80;99.90
4749;DHT22;2388;53.582;9.962;2023-05-29T02:47:25;11.70;99.90
4749;DHT22;2388;53.582;9.962;2023-05-29T02:49:51;11.70;99.90
4749;DHT22;2388;53.582;9.962;2023-05-29T02:52:16;11.70;99.90
4749;DHT22;2388;53.582;9.962;2023-05-29T02:54:42;11.70;99.90
4749;DHT22;2388;53.582;9.962;2023-05-29T02:57:07;11.70;99.90
4749;DHT22;2388;53.582;9.962;2023-05-29T02:59:33;11.70;99.90
4749;DHT22;2388;53.582;9.962;2023-05-29T03:01:59;11.60;99.90
4749;DHT22;2388;53.582;9.962;2023-05-29T03:04:24;11.60;99.90
4749;DHT22;2388;53.582;9.962;2023-05-29T03:06:49;11.60;99.90
4749;DHT22;2388;53.582;9.962;2023-05-29T03:09:15;11.50;99.90
4749;DHT22;2388;53.582;9.962;2023-05-29T03:11:41;11.60;99.90
4749;DHT22;2388;53.582;9.962;2023-05-29T03:14:07;11.50;99.90
4749;DHT22;2388;53.582;9.962;2023-05-29T03:16:33;11.50;99.90
4749;DHT22;2388;53.582;9.962;2023-05-29T03:18:58;11.50;99.90
4749;DHT22;2388;53.582;9.962;2023-05-29T03:21:24;11.50;99.90
4749;DHT22;2388;53.582;9.962;2023-05-29T03:23:49;11.50;99.90
4749;DHT22;2388;53.582;9.962;2023-05-29T03:26:15;11.50;99.90
4749;DHT22;2388;53.582;9.962;2023-05-29T03:28:41;11.40;99.90
4749;DHT22;2388;53.582;9.962;2023-05-29T03:31:06;11.50;99.90
4749;DHT22;2388;53.582;9.962;2023-05-29T03:33:34;11.40;99.90
4749;DHT22;2388;53.582;9.962;2023-05-29T03:36:00;11.40;99.90
4749;DHT22;2388;53.582;9.962;2023-05-29T03:38:25;11.50;99.90
4749;DHT22;2388;53.582;9.962;2023-05-29T03:40:51;11.40;99.90
4749;DHT22;2388;53.582;9.962;2023-05-29T03:43:16;11.40;99.90
4749;DHT22;2388;53.582;9.962;2023-05-29T03:45:42;11.30;99.90
4749;DHT22;2388;53.582;9.962;2023-05-29T03:48:07;11.30;99.90
4749;DHT22;2388;53.582;9.962;2023-05-29T03:50:33;11.30;99.90
4749;DHT22;2388;53.582;9.962;2023-05-29T03:52:58;11.40;99.90
4749;DHT22;2388;53.582;9.962;2023-05-29T03:55:26;11.40;99.90
4749;DHT22;2388;53.582;9.962;2023-05-29T03:57:52;11.30;99.90
4749;DHT22;2388;53.582;9.962;2023-05-29T04:00:17;11.30;99.90
4749;DHT22;2388;53.582;9.962;2023-05-29T04:02:43;11.30;99.90
4749;DHT22;2388;53.582;9.962;2023-05-29T04:05:09;11.30;99.90
4749;DHT22;2388;53.582;9.962;2023-05-29T04:07:36;11.30;99.90
4749;DHT22;2388;53.582;9.962;2023-05-29T04:10:05;11.30;99.90
4749;DHT22;2388;53.582;9.962;2023-05-29T04:12:32;11.30;99.90
4749;DHT22;2388;53.582;9.962;2023-05-29T04:14:58;11.30;99.90
4749;DHT22;2388;53.582;9.962;2023-05-29T04:17:23;11.20;99.90
4749;DHT22;2388;53.582;9.962;2023-05-29T04:19:49;11.30;99.90
4749;DHT22;2388;53.582;9.962;2023-05-29T04:22:14;11.30;99.90
4749;DHT22;2388;53.582;9.962;2023-05-29T04:24:40;11.30;99.90
4749;DHT22;2388;53.582;9.962;2023-05-29T04:27:07;11.40;99.90
4749;DHT22;2388;53.582;9.962;2023-05-29T04:29:34;11.40;99.90
4749;DHT22;2388;53.582;9.962;2023-05-29T04:32:00;11.30;99.90
4749;DHT22;2388;53.582;9.962;2023-05-29T04:34:29;11.30;99.90
4749;DHT22;2388;53.582;9.962;2023-05-29T04:36:56;11.30;99.90
4749;DHT22;2388;53.582;9.962;2023-05-29T04:39:23;11.30;99.90
4749;DHT22;2388;53.582;9.962;2023-05-29T04:41:50;11.30;99.90
4749;DHT22;2388;53.582;9.962;2023-05-29T04:44:15;11.30;99.90
4749;DHT22;2388;53.582;9.962;2023-05-29T04:46:41;11.30;99.90
4749;DHT22;2388;53.582;9.962;2023-05-29T04:49:10;11.30;99.90
4749;DHT22;2388;53.582;9.962;2023-05-29T04:51:35;11.40;99.90
4749;DHT22;2388;53.582;9.962;2023-05-29T04:54:02;11.30;99.90
4749;DHT22;2388;53.582;9.962;2023-05-29T04:56:28;11.30;99.90
4749;DHT22;2388;53.582;9.962;2023-05-29T04:58:53;11.30;99.90
4749;DHT22;2388;53.582;9.962;2023-05-29T05:01:19;11.30;99.90
4749;DHT22;2388;53.582;9.962;2023-05-29T05:03:45;11.40;99.90
4749;DHT22;2388;53.582;9.962;2023-05-29T05:06:11;11.40;99.90
4749;DHT22;2388;53.582;9.962;2023-05-29T05:08:38;11.50;99.90
4749;DHT22;2388;53.582;9.962;2023-05-29T05:11:04;11.50;99.90
4749;DHT22;2388;53.582;9.962;2023-05-29T05:13:31;11.50;99.90
4749;DHT22;2388;53.582;9.962;2023-05-29T05:15:57;11.50;99.90
4749;DHT22;2388;53.582;9.962;2023-05-29T05:18:22;11.60;99.90
4749;DHT22;2388;53.582;9.962;2023-05-29T05:20:48;11.60;99.90
4749;DHT22;2388;53.582;9.962;2023-05-29T05:23:13;11.50;99.90
4749;DHT22;2388;53.582;9.962;2023-05-29T05:25:39;11.60;99.90
4749;DHT22;2388;53.582;9.962;2023-05-29T05:28:05;11.70;99.90
4749;DHT22;2388;53.582;9.962;2023-05-29T05:30:31;11.60;99.90
4749;DHT22;2388;53.582;9.962;2023-05-29T05:32:57;11.60;99.90
4749;DHT22;2388;53.582;9.962;2023-05-29T05:35:23;11.50;99.90
4749;DHT22;2388;53.582;9.962;2023-05-29T05:37:49;11.60;99.90
4749;DHT22;2388;53.582;9.962;2023-05-29T05:40:14;11.60;99.90
4749;DHT22;2388;53.582;9.962;2023-05-29T05:42:40;11.70;99.90
4749;DHT22;2388;53.582;9.962;2023-05-29T05:45:06;11.70;99.90
4749;DHT22;2388;53.582;9.962;2023-05-29T05:47:32;11.70;99.90
4749;DHT22;2388;53.582;9.962;2023-05-29T05:49:58;11.70;99.90
4749;DHT22;2388;53.582;9.962;2023-05-29T05:52:24;11.70;99.90
4749;DHT22;2388;53.582;9.962;2023-05-29T05:54:51;11.70;99.90
4749;DHT22;2388;53.582;9.962;2023-05-29T05:57:16;11.70;99.90
4749;DHT22;2388;53.582;9.962;2023-05-29T05:59:42;11.80;99.90
4749;DHT22;2388;53.582;9.962;2023-05-29T06:02:07;11.80;99.90
4749;DHT22;2388;53.582;9.962;2023-05-29T06:04:33;11.80;99.90
4749;DHT22;2388;53.582;9.962;2023-05-29T06:06:58;11.70;99.90
4749;DHT22;2388;53.582;9.962;2023-05-29T06:09:24;11.70;99.90
4749;DHT22;2388;53.582;9.962;2023-05-29T06:11:51;11.60;99.90
4749;DHT22;2388;53.582;9.962;2023-05-29T06:14:16;11.60;99.90
4749;DHT22;2388;53.582;9.962;2023-05-29T06:16:42;11.60;99.90
4749;DHT22;2388;53.582;9.962;2023-05-29T06:19:08;11.70;99.90
4749;DHT22;2388;53.582;9.962;2023-05-29T06:21:34;11.70;99.90
4749;DHT22;2388;53.582;9.962;2023-05-29T06:24:00;11.70;99.90
4749;DHT22;2388;53.582;9.962;2023-05-29T06:26:25;11.80;99.90
4749;DHT22;2388;53.582;9.962;2023-05-29T06:28:52;11.90;99.90
4749;DHT22;2388;53.582;9.962;2023-05-29T06:31:17;11.90;99.90
4749;DHT22;2388;53.582;9.962;2023-05-29T06:33:43;11.90;99.90
4749;DHT22;2388;53.582;9.962;2023-05-29T06:36:09;12.00;99.90
4749;DHT22;2388;53.582;9.962;2023-05-29T06:38:34;11.90;99.90
4749;DHT22;2388;53.582;9.962;2023-05-29T06:41:00;12.00;99.90
4749;DHT22;2388;53.582;9.962;2023-05-29T06:43:27;12.10;99.90
4749;DHT22;2388;53.582;9.962;2023-05-29T06:45:53;12.20;99.90
4749;DHT22;2388;53.582;9.962;2023-05-29T06:48:19;12.20;99.90
4749;DHT22;2388;53.582;9.962;2023-05-29T06:50:45;12.30;99.90
4749;DHT22;2388;53.582;9.962;2023-05-29T06:53:10;12.30;99.90
4749;DHT22;2388;53.582;9.962;2023-05-29T06:55:36;12.30;99.90
4749;DHT22;2388;53.582;9.962;2023-05-29T06:58:01;12.20;99.90
4749;DHT22;2388;53.582;9.962;2023-05-29T07:00:27;12.20;99.90
4749;DHT22;2388;53.582;9.962;2023-05-29T07:02:53;12.30;99.90
4749;DHT22;2388;53.582;9.962;2023-05-29T07:05:19;12.30;99.90
4749;DHT22;2388;53.582;9.962;2023-05-29T07:07:45;12.30;99.90
4749;DHT22;2388;53.582;9.962;2023-05-29T07:10:10;12.40;99.90
4749;DHT22;2388;53.582;9.962;2023-05-29T07:12:36;12.50;99.90
4749;DHT22;2388;53.582;9.962;2023-05-29T07:15:01;12.40;99.90
4749;DHT22;2388;53.582;9.962;2023-05-29T07:17:27;12.50;99.90
4749;DHT22;2388;53.582;9.962;2023-05-29T07:19:52;12.50;99.90
4749;DHT22;2388;53.582;9.962;2023-05-29T07:22:19;12.60;99.90
4749;DHT22;2388;53.582;9.962;2023-05-29T07:24:45;12.60;99.90
4749;DHT22;2388;53.582;9.962;2023-05-29T07:27:11;12.60;99.90
4749;DHT22;2388;53.582;9.962;2023-05-29T07:29:36;12.70;99.90
4749;DHT22;2388;53.582;9.962;2023-05-29T07:32:02;12.70;99.90
4749;DHT22;2388;53.582;9.962;2023-05-29T07:34:27;12.70;99.90
4749;DHT22;2388;53.582;9.962;2023-05-29T07:37:11;12.70;99.90
4749;DHT22;2388;53.582;9.962;2023-05-29T07:39:36;12.70;99.90
4749;DHT22;2388;53.582;9.962;2023-05-29T07:42:02;12.80;99.90
4749;DHT22;2388;53.582;9.962;2023-05-29T07:44:28;12.80;99.90
4749;DHT22;2388;53.582;9.962;2023-05-29T07:46:53;12.80;99.90
4749;DHT22;2388;53.582;9.962;2023-05-29T07:49:20;12.80;99.90
4749;DHT22;2388;53.582;9.962;2023-05-29T07:51:45;12.90;99.90
4749;DHT22;2388;53.582;9.962;2023-05-29T07:54:11;13.00;99.90
4749;DHT22;2388;53.582;9.962;2023-05-29T07:56:37;13.10;99.90
4749;DHT22;2388;53.582;9.962;2023-05-29T07:59:03;13.10;99.90
4749;DHT22;2388;53.582;9.962;2023-05-29T08:01:29;13.30;99.90
4749;DHT22;2388;53.582;9.962;2023-05-29T08:03:55;13.20;99.90
4749;DHT22;2388;53.582;9.962;2023-05-29T08:06:21;13.30;99.90
4749;DHT22;2388;53.582;9.962;2023-05-29T08:08:46;13.30;99.90
4749;DHT22;2388;53.582;9.962;2023-05-29T08:11:12;13.30;99.90
4749;DHT22;2388;53.582;9.962;2023-05-29T08:13:38;13.20;99.90
4749;DHT22;2388;53.582;9.962;2023-05-29T08:16:03;13.30;99.90
4749;DHT22;2388;53.582;9.962;2023-05-29T08:18:30;13.30;99.90
4749;DHT22;2388;53.582;9.962;2023-05-29T08:20:56;13.30;99.90
4749;DHT22;2388;53.582;9.962;2023-05-29T08:23:22;13.30;99.90
4749;DHT22;2388;53.582;9.962;2023-05-29T08:25:47;13.40;99.90
4749;DHT22;2388;53.582;9.962;2023-05-29T08:28:14;13.40;99.90
4749;DHT22;2388;53.582;9.962;2023-05-29T08:30:40;13.40;99.90
4749;DHT22;2388;53.582;9.962;2023-05-29T08:33:06;13.50;99.90
4749;DHT22;2388;53.582;9.962;2023-05-29T08:35:32;13.50;99.90
4749;DHT22;2388;53.582;9.962;2023-05-29T08:37:58;13.60;99.90
4749;DHT22;2388;53.582;9.962;2023-05-29T08:40:23;13.60;99.90
4749;DHT22;2388;53.582;9.962;2023-05-29T08:42:56;13.60;99.90
4749;DHT22;2388;53.582;9.962;2023-05-29T08:45:24;13.70;99.90
4749;DHT22;2388;53.582;9.962;2023-05-29T08:47:52;13.70;99.90
4749;DHT22;2388;53.582;9.962;2023-05-29T08:50:22;13.70;99.90
4749;DHT22;2388;53.582;9.962;2023-05-29T08:52:48;13.80;99.90
4749;DHT22;2388;53.582;9.962;2023-05-29T08:55:15;13.90;99.90
4749;DHT22;2388;53.582;9.962;2023-05-29T08:57:42;13.90;99.90
4749;DHT22;2388;53.582;9.962;2023-05-29T09:00:09;14.00;99.90
4749;DHT22;2388;53.582;9.962;2023-05-29T09:02:41;14.00;99.90
4749;DHT22;2388;53.582;9.962;2023-05-29T09:05:09;14.10;99.90
4749;DHT22;2388;53.582;9.962;2023-05-29T09:07:35;14.10;99.90
4749;DHT22;2388;53.582;9.962;2023-05-29T09:10:04;14.20;99.90
4749;DHT22;2388;53.582;9.962;2023-05-29T09:12:31;14.20;99.90
4749;DHT22;2388;53.582;9.962;2023-05-29T09:14:56;14.30;99.90
4749;DHT22;2388;53.582;9.962;2023-05-29T09:17:22;14.30;99.90
4749;DHT22;2388;53.582;9.962;2023-05-29T09:19:48;14.30;99.90
4749;DHT22;2388;53.582;9.962;2023-05-29T09:22:15;14.40;99.90
4749;DHT22;2388;53.582;9.962;2023-05-29T09:24:42;14.40;99.90
4749;DHT22;2388;53.582;9.962;2023-05-29T09:27:09;14.50;99.90
4749;DHT22;2388;53.582;9.962;2023-05-29T09:29:42;14.50;99.90
4749;DHT22;2388;53.582;9.962;2023-05-29T09:32:15;14.60;99.90
4749;DHT22;2388;53.582;9.962;2023-05-29T09:34:42;14.60;99.90
4749;DHT22;2388;53.582;9.962;2023-05-29T09:37:09;14.80;99.90
4749;DHT22;2388;53.582;9.962;2023-05-29T09:39:47;14.80;99.90
4749;DHT22;2388;53.582;9.962;2023-05-29T09:42:14;14.90;99.90
4749;DHT22;2388;53.582;9.962;2023-05-29T09:44:41;15.00;99.90
4749;DHT22;2388;53.582;9.962;2023-05-29T09:47:06;15.00;99.90
4749;DHT22;2388;53.582;9.962;2023-05-29T09:49:32;15.00;99.90
4749;DHT22;2388;53.582;9.962;2023-05-29T09:51:58;15.10;99.90
4749;DHT22;2388;53.582;9.962;2023-05-29T09:54:27;15.10;99.90
4749;DHT22;2388;53.582;9.962;2023-05-29T09:56:54;15.10;99.90
4749;DHT22;2388;53.582;9.962;2023-05-29T09:59:23;15.10;99.90
4749;DHT22;2388;53.582;9.962;2023-05-29T10:02:05;15.20;99.90
4749;DHT22;2388;53.582;9.962;2023-05-29T10:04:33;15.30;99.90
4749;DHT22;2388;53.582;9.962;2023-05-29T10:07:03;15.30;99.90
4749;DHT22;2388;53.582;9.962;2023-05-29T10:09:30;15.30;99.90
4749;DHT22;2388;53.582;9.962;2023-05-29T10:11:59;15.40;99.90
4749;DHT22;2388;53.582;9.962;2023-05-29T10:14:29;15.40;99.90
4749;DHT22;2388;53.582;9.962;2023-05-29T10:16:58;15.50;99.90
4749;DHT22;2388;53.582;9.962;2023-05-29T10:19:29;15.50;99.90
4749;DHT22;2388;53.582;9.962;2023-05-29T10:21:55;15.70;99.90
4749;DHT22;2388;53.582;9.962;2023-05-29T10:24:22;15.70;99.90
4749;DHT22;2388;53.582;9.962;2023-05-29T10:26:49;15.70;99.90
4749;DHT22;2388;53.582;9.962;2023-05-29T10:32:21;15.80;99.90
4749;DHT22;2388;53.582;9.962;2023-05-29T10:35:08;15.90;99.90
4749;DHT22;2388;53.582;9.962;2023-05-29T10:37:45;16.00;99.90
4749;DHT22;2388;53.582;9.962;2023-05-29T10:40:14;16.00;99.90
4749;DHT22;2388;53.582;9.962;2023-05-29T10:45:09;16.20;99.90
4749;DHT22;2388;53.582;9.962;2023-05-29T10:47:37;16.20;99.90
4749;DHT22;2388;53.582;9.962;2023-05-29T10:50:03;16.30;99.90
4749;DHT22;2388;53.582;9.962;2023-05-29T10:52:32;16.30;99.90
4749;DHT22;2388;53.582;9.962;2023-05-29T10:54:58;16.30;99.90
4749;DHT22;2388;53.582;9.962;2023-05-29T10:57:24;16.50;99.90
4749;DHT22;2388;53.582;9.962;2023-05-29T11:00:03;16.70;99.90
4749;DHT22;2388;53.582;9.962;2023-05-29T11:02:32;16.70;99.90
4749;DHT22;2388;53.582;9.962;2023-05-29T11:05:18;16.80;99.90
4749;DHT22;2388;53.582;9.962;2023-05-29T11:07:53;16.80;99.90
4749;DHT22;2388;53.582;9.962;2023-05-29T11:10:42;16.90;99.90
4749;DHT22;2388;53.582;9.962;2023-05-29T11:13:23;16.90;99.90
4749;DHT22;2388;53.582;9.962;2023-05-29T11:16:04;17.00;99.90
4749;DHT22;2388;53.582;9.962;2023-05-29T11:18:30;17.00;99.90
4749;DHT22;2388;53.582;9.962;2023-05-29T11:21:03;17.10;99.90
4749;DHT22;2388;53.582;9.962;2023-05-29T11:23:31;17.20;99.90
4749;DHT22;2388;53.582;9.962;2023-05-29T11:25:57;17.30;99.90
4749;DHT22;2388;53.582;9.962;2023-05-29T11:28:24;17.70;99.90
4749;DHT22;2388;53.582;9.962;2023-05-29T11:30:50;17.80;99.90
4749;DHT22;2388;53.582;9.962;2023-05-29T11:33:26;17.70;99.90
4749;DHT22;2388;53.582;9.962;2023-05-29T11:36:00;17.70;99.90
4749;DHT22;2388;53.582;9.962;2023-05-29T11:38:26;17.90;99.90
4749;DHT22;2388;53.582;9.962;2023-05-29T11:40:55;17.90;99.90
4749;DHT22;2388;53.582;9.962;2023-05-29T11:43:21;18.00;99.90
4749;DHT22;2388;53.582;9.962;2023-05-29T11:45:47;18.20;99.90
4749;DHT22;2388;53.582;9.962;2023-05-29T11:48:13;18.20;99.90
4749;DHT22;2388;53.582;9.962;2023-05-29T11:50:38;18.30;99.90
4749;DHT22;2388;53.582;9.962;2023-05-29T11:53:06;18.30;99.90
4749;DHT22;2388;53.582;9.962;2023-05-29T11:55:32;18.40;99.90
4749;DHT22;2388;53.582;9.962;2023-05-29T11:57:59;18.40;99.90
4749;DHT22;2388;53.582;9.962;2023-05-29T12:00:26;18.50;99.90
4749;DHT22;2388;53.582;9.962;2023-05-29T12:02:51;18.60;99.90
4749;DHT22;2388;53.582;9.962;2023-05-29T12:05:18;18.90;99.90
4749;DHT22;2388;53.582;9.962;2023-05-29T12:08:01;19.30;99.90
4749;DHT22;2388;53.582;9.962;2023-05-29T12:10:29;19.70;99.90
4749;DHT22;2388;53.582;9.962;2023-05-29T12:12:58;19.80;99.90
4749;DHT22;2388;53.582;9.962;2023-05-29T12:15:23;20.00;99.90
4749;DHT22;2388;53.582;9.962;2023-05-29T12:17:50;20.00;99.90
4749;DHT22;2388;53.582;9.962;2023-05-29T12:20:16;20.20;99.90
4749;DHT22;2388;53.582;9.962;2023-05-29T12:22:44;20.40;99.90
4749;DHT22;2388;53.582;9.962;2023-05-29T12:25:17;20.60;99.90
4749;DHT22;2388;53.582;9.962;2023-05-29T12:27:44;20.80;99.90
4749;DHT22;2388;53.582;9.962;2023-05-29T12:32:47;21.40;99.90
4749;DHT22;2388;53.582;9.962;2023-05-29T12:35:15;21.30;99.90
4749;DHT22;2388;53.582;9.962;2023-05-29T12:37:56;21.60;99.90
4749;DHT22;2388;53.582;9.962;2023-05-29T12:40:24;21.60;99.90
4749;DHT22;2388;53.582;9.962;2023-05-29T12:43:05;21.80;99.90
4749;DHT22;2388;53.582;9.962;2023-05-29T12:45:32;22.00;99.90
4749;DHT22;2388;53.582;9.962;2023-05-29T12:48:00;22.20;99.90
4749;DHT22;2388;53.582;9.962;2023-05-29T12:50:30;22.20;99.90
4749;DHT22;2388;53.582;9.962;2023-05-29T12:53:08;22.20;99.90
4749;DHT22;2388;53.582;9.962;2023-05-29T12:55:36;22.20;99.90
4749;DHT22;2388;53.582;9.962;2023-05-29T12:58:03;22.30;99.90
4749;DHT22;2388;53.582;9.962;2023-05-29T13:00:28;22.40;99.90
4749;DHT22;2388;53.582;9.962;2023-05-29T13:02:55;22.40;99.90
4749;DHT22;2388;53.582;9.962;2023-05-29T13:05:20;22.60;99.90
4749;DHT22;2388;53.582;9.962;2023-05-29T13:07:48;22.80;99.90
4749;DHT22;2388;53.582;9.962;2023-05-29T13:10:14;22.80;99.90
4749;DHT22;2388;53.582;9.962;2023-05-29T13:12:41;23.00;99.90
4749;DHT22;2388;53.582;9.962;2023-05-29T13:15:07;23.20;99.90
4749;DHT22;2388;53.582;9.962;2023-05-29T13:17:33;23.20;99.90
4749;DHT22;2388;53.582;9.962;2023-05-29T13:19:59;23.20;99.90
4749;DHT22;2388;53.582;9.962;2023-05-29T13:22:24;23.30;99.90
4749;DHT22;2388;53.582;9.962;2023-05-29T13:24:56;23.40;99.90
4749;DHT22;2388;53.582;9.962;2023-05-29T13:27:22;23.50;99.90
4749;DHT22;2388;53.582;9.962;2023-05-29T13:29:49;23.50;99.90
4749;DHT22;2388;53.582;9.962;2023-05-29T13:32:15;23.60;99.90
4749;DHT22;2388;53.582;9.962;2023-05-29T13:34:40;23.60;99.90
4749;DHT22;2388;53.582;9.962;2023-05-29T13:37:06;23.70;99.90
4749;DHT22;2388;53.582;9.962;2023-05-29T13:39:31;23.90;99.90
4749;DHT22;2388;53.582;9.962;2023-05-29T13:41:57;23.90;99.90
4749;DHT22;2388;53.582;9.962;2023-05-29T13:44:22;23.90;99.90
4749;DHT22;2388;53.582;9.962;2023-05-29T13:46:47;24.00;99.90
4749;DHT22;2388;53.582;9.962;2023-05-29T13:49:13;23.90;99.90
4749;DHT22;2388;53.582;9.962;2023-05-29T13:51:38;23.60;99.90
4749;DHT22;2388;53.582;9.962;2023-05-29T13:54:04;23.50;99.90
4749;DHT22;2388;53.582;9.962;2023-05-29T13:56:30;23.50;99.90
4749;DHT22;2388;53.582;9.962;2023-05-29T13:58:55;23.40;99.90
4749;DHT22;2388;53.582;9.962;2023-05-29T14:01:21;23.40;99.90
4749;DHT22;2388;53.582;9.962;2023-05-29T14:03:47;23.30;99.90
4749;DHT22;2388;53.582;9.962;2023-05-29T14:06:13;23.10;99.90
4749;DHT22;2388;53.582;9.962;2023-05-29T14:08:38;22.90;99.90
4749;DHT22;2388;53.582;9.962;2023-05-29T14:11:04;22.50;99.90
4749;DHT22;2388;53.582;9.962;2023-05-29T14:13:30;22.40;99.90
4749;DHT22;2388;53.582;9.962;2023-05-29T14:15:55;22.50;99.90
4749;DHT22;2388;53.582;9.962;2023-05-29T14:18:22;22.40;99.90
4749;DHT22;2388;53.582;9.962;2023-05-29T14:20:48;22.10;99.90
4749;DHT22;2388;53.582;9.962;2023-05-29T14:23:16;21.90;99.90
4749;DHT22;2388;53.582;9.962;2023-05-29T14:25:42;21.80;99.90
4749;DHT22;2388;53.582;9.962;2023-05-29T14:28:08;21.60;99.90
4749;DHT22;2388;53.582;9.962;2023-05-29T14:30:33;21.50;99.90
4749;DHT22;2388;53.582;9.962;2023-05-29T14:32:59;21.40;99.90
4749;DHT22;2388;53.582;9.962;2023-05-29T14:35:25;21.10;99.90
4749;DHT22;2388;53.582;9.962;2023-05-29T14:37:51;21.00;99.90
4749;DHT22;2388;53.582;9.962;2023-05-29T14:40:17;21.00;99.90
4749;DHT22;2388;53.582;9.962;2023-05-29T14:42:42;20.80;99.90
4749;DHT22;2388;53.582;9.962;2023-05-29T14:45:08;20.70;99.90
4749;DHT22;2388;53.582;9.962;2023-05-29T14:47:35;20.70;99.90
4749;DHT22;2388;53.582;9.962;2023-05-29T14:50:00;20.60;99.90
4749;DHT22;2388;53.582;9.962;2023-05-29T14:52:27;20.60;99.90
4749;DHT22;2388;53.582;9.962;2023-05-29T14:54:52;20.60;99.90
4749;DHT22;2388;53.582;9.962;2023-05-29T14:57:18;20.50;99.90
4749;DHT22;2388;53.582;9.962;2023-05-29T14:59:43;20.50;99.90
4749;DHT22;2388;53.582;9.962;2023-05-29T15:02:09;20.50;99.90
4749;DHT22;2388;53.582;9.962;2023-05-29T15:04:35;20.50;99.90
4749;DHT22;2388;53.582;9.962;2023-05-29T15:07:01;20.40;99.90
4749;DHT22;2388;53.582;9.962;2023-05-29T15:09:26;20.30;99.90
4749;DHT22;2388;53.582;9.962;2023-05-29T15:12:01;20.30;99.90
4749;DHT22;2388;53.582;9.962;2023-05-29T15:14:26;20.20;99.90
4749;DHT22;2388;53.582;9.962;2023-05-29T15:16:52;20.10;99.90
4749;DHT22;2388;53.582;9.962;2023-05-29T15:19:17;20.20;99.90
4749;DHT22;2388;53.582;9.962;2023-05-29T15:21:43;20.10;99.90
4749;DHT22;2388;53.582;9.962;2023-05-29T15:24:08;19.90;99.90
4749;DHT22;2388;53.582;9.962;2023-05-29T15:26:34;19.90;99.90
4749;DHT22;2388;53.582;9.962;2023-05-29T15:29:00;19.90;99.90
4749;DHT22;2388;53.582;9.962;2023-05-29T15:31:26;19.90;99.90
4749;DHT22;2388;53.582;9.962;2023-05-29T15:33:51;19.90;99.90
4749;DHT22;2388;53.582;9.962;2023-05-29T15:36:16;19.90;99.90
4749;DHT22;2388;53.582;9.962;2023-05-29T15:38:44;19.90;99.90
4749;DHT22;2388;53.582;9.962;2023-05-29T15:41:09;19.90;99.90
4749;DHT22;2388;53.582;9.962;2023-05-29T15:43:35;19.90;99.90
4749;DHT22;2388;53.582;9.962;2023-05-29T15:46:00;19.80;99.90
4749;DHT22;2388;53.582;9.962;2023-05-29T15:48:26;19.80;99.90
4749;DHT22;2388;53.582;9.962;2023-05-29T15:50:51;19.70;99.90
4749;DHT22;2388;53.582;9.962;2023-05-29T15:53:17;19.70;99.90
4749;DHT22;2388;53.582;9.962;2023-05-29T15:55:42;19.70;99.90
4749;DHT22;2388;53.582;9.962;2023-05-29T15:58:08;19.70;99.90
4749;DHT22;2388;53.582;9.962;2023-05-29T16:00:33;19.70;99.90
4749;DHT22;2388;53.582;9.962;2023-05-29T16:03:02;19.70;99.90
4749;DHT22;2388;53.582;9.962;2023-05-29T16:05:28;19.70;99.90
4749;DHT22;2388;53.582;9.962;2023-05-29T16:07:54;19.70;99.90
4749;DHT22;2388;53.582;9.962;2023-05-29T16:10:20;19.60;99.90
4749;DHT22;2388;53.582;9.962;2023-05-29T16:12:46;19.60;99.90
4749;DHT22;2388;53.582;9.962;2023-05-29T16:15:14;19.60;99.90
4749;DHT22;2388;53.582;9.962;2023-05-29T16:17:42;19.60;99.90